Time,TemperatureF,DewpointF,PressureIn,WindDirection,WindDirectionDegrees,WindSpeedMPH,WindSpeedGustMPH,Humidity,HourlyPrecipIn,Conditions,Clouds,dailyrainin,SoftwareType,DateUTC
2013-03-03 00:04:00,26.6,18.5,29.53,ENE,67,3.7,-999.0,71,-99.99,,,0.00,Acu-Link.com,2013-03-03 05:04:00,
2013-03-03 00:20:00,26.6,18.8,29.53,North,0,5.8,-999.0,72,-99.99,,,0.00,Acu-Link.com,2013-03-03 05:20:00,
2013-03-03 00:35:00,26.4,18.3,29.53,West,270,8.3,-999.0,71,-99.99,,,0.00,Acu-Link.com,2013-03-03 05:35:00,
2013-03-03 00:50:00,26.1,18.0,29.53,NW,315,3.7,-999.0,71,-99.99,,,0.00,Acu-Link.com,2013-03-03 05:50:00,
2013-03-03 01:05:00,25.9,17.8,29.53,WSW,247,5.3,-999.0,71,-99.99,,,0.00,Acu-Link.com,2013-03-03 06:05:00,
2013-03-03 01:21:00,25.7,17.3,29.54,WNW,292,4.2,-999.0,70,-99.99,,,0.00,Acu-Link.com,2013-03-03 06:21:00,
2013-03-03 01:36:00,25.3,17.2,29.54,West,270,3.7,-999.0,71,-99.99,,,0.00,Acu-Link.com,2013-03-03 06:36:00,
2013-03-03 01:51:00,25.0,16.9,29.54,WSW,247,4.2,-999.0,71,-99.99,,,0.00,Acu-Link.com,2013-03-03 06:51:00,
2013-03-03 02:06:00,25.0,16.6,29.54,NNE,22,4.2,-999.0,70,-99.99,,,0.00,Acu-Link.com,2013-03-03 07:06:00,
2013-03-03 02:22:00,25.0,16.6,29.53,NE,45,2.7,-999.0,70,-99.99,,,0.00,Acu-Link.com,2013-03-03 07:22:00,
2013-03-03 02:37:00,24.8,16.8,29.53,West,270,4.7,-999.0,71,-99.99,,,0.00,Acu-Link.com,2013-03-03 07:37:00,
2013-03-03 02:52:00,24.6,16.2,29.53,West,270,5.3,-999.0,70,-99.99,,,0.00,Acu-Link.com,2013-03-03 07:52:00,
2013-03-03 03:07:00,24.4,15.7,29.52,SW,225,4.2,-999.0,69,-99.99,,,0.00,Acu-Link.com,2013-03-03 08:07:00,
2013-03-03 03:23:00,24.4,16.0,29.52,NNE,22,4.7,-999.0,70,-99.99,,,0.00,Acu-Link.com,2013-03-03 08:23:00,
2013-03-03 03:38:00,24.3,15.9,29.52,West,270,7.8,-999.0,70,-99.99,,,0.00,Acu-Link.com,2013-03-03 08:38:00,
2013-03-03 03:53:00,24.3,16.3,29.52,SW,225,5.3,-999.0,71,-99.99,,,0.00,Acu-Link.com,2013-03-03 08:53:00,
2013-03-03 04:19:00,23.9,16.2,29.52,NNW,337,2.2,-999.0,72,-99.99,,,0.00,Acu-Link.com,2013-03-03 09:19:00,
2013-03-03 04:34:00,23.7,17.0,29.52,West,270,4.2,-999.0,75,-99.99,,,0.00,Acu-Link.com,2013-03-03 09:34:00,
2013-03-03 04:49:00,23.4,16.7,29.52,NNE,22,3.2,-999.0,75,-99.99,,,0.00,Acu-Link.com,2013-03-03 09:49:00,
2013-03-03 05:04:00,23.4,16.0,29.53,West,270,3.7,-999.0,73,-99.99,,,0.00,Acu-Link.com,2013-03-03 10:04:00,
2013-03-03 05:19:00,23.2,15.5,29.53,NNW,337,4.7,-999.0,72,-99.99,,,0.00,Acu-Link.com,2013-03-03 10:19:00,
2013-03-03 05:35:00,23.0,15.0,29.53,WSW,247,4.7,-999.0,71,-99.99,,,0.00,Acu-Link.com,2013-03-03 10:35:00,
2013-03-03 05:50:00,22.8,14.8,29.54,East,90,3.2,-999.0,71,-99.99,,,0.00,Acu-Link.com,2013-03-03 10:50:00,
2013-03-03 06:05:00,22.6,14.0,29.54,WNW,292,6.8,-999.0,69,-99.99,,,0.00,Acu-Link.com,2013-03-03 11:05:00,
2013-03-03 06:20:00,22.8,13.8,29.54,WNW,292,4.7,-999.0,68,-99.99,,,0.00,Acu-Link.com,2013-03-03 11:20:00,
2013-03-03 06:36:00,22.6,14.0,29.54,NW,315,6.8,-999.0,69,-99.99,,,0.00,Acu-Link.com,2013-03-03 11:36:00,
2013-03-03 06:51:00,22.3,13.7,29.54,WNW,292,3.2,-999.0,69,-99.99,,,0.00,Acu-Link.com,2013-03-03 11:51:00,
2013-03-03 07:06:00,22.5,13.9,29.54,WNW,292,5.8,-999.0,69,-99.99,,,0.00,Acu-Link.com,2013-03-03 12:06:00,
2013-03-03 07:21:00,22.5,13.9,29.54,SW,225,3.2,-999.0,69,-99.99,,,0.00,Acu-Link.com,2013-03-03 12:21:00,
2013-03-03 07:36:00,22.6,13.7,29.54,NNE,22,4.2,-999.0,68,-99.99,,,0.00,Acu-Link.com,2013-03-03 12:36:00,
2013-03-03 07:51:00,23.0,14.4,29.56,West,270,5.3,-999.0,69,-99.99,,,0.00,Acu-Link.com,2013-03-03 12:51:00,
2013-03-03 08:07:00,23.2,14.2,29.56,SSW,202,3.2,-999.0,68,-99.99,,,0.00,Acu-Link.com,2013-03-03 13:07:00,
2013-03-03 08:22:00,23.5,13.5,29.56,NNE,22,5.8,-999.0,65,-99.99,,,0.00,Acu-Link.com,2013-03-03 13:22:00,
2013-03-03 08:37:00,23.9,12.1,29.56,WSW,247,3.7,-999.0,60,-99.99,,,0.00,Acu-Link.com,2013-03-03 13:37:00,
2013-03-03 08:52:00,24.4,12.2,29.57,WNW,292,4.2,-999.0,59,-99.99,,,0.00,Acu-Link.com,2013-03-03 13:52:00,
2013-03-03 09:07:00,25.3,12.6,29.57,NW,315,5.3,-999.0,58,-99.99,,,0.00,Acu-Link.com,2013-03-03 14:07:00,
2013-03-03 09:22:00,25.7,12.6,29.57,ESE,112,2.7,-999.0,57,-99.99,,,0.00,Acu-Link.com,2013-03-03 14:22:00,
2013-03-03 09:37:00,25.3,12.6,29.57,SW,225,2.7,-999.0,58,-99.99,,,0.00,Acu-Link.com,2013-03-03 14:37:00,
2013-03-03 09:53:00,25.5,12.8,29.57,West,270,3.7,-999.0,58,-99.99,,,0.00,Acu-Link.com,2013-03-03 14:53:00,
2013-03-03 10:08:00,26.8,14.4,29.57,SW,225,3.2,-999.0,59,-99.99,,,0.00,Acu-Link.com,2013-03-03 15:08:00,
2013-03-03 10:23:00,26.4,13.3,29.57,NNW,337,8.3,-999.0,57,-99.99,,,0.00,Acu-Link.com,2013-03-03 15:23:00,
2013-03-03 10:38:00,27.1,13.9,29.57,North,0,6.8,-999.0,57,-99.99,,,0.00,Acu-Link.com,2013-03-03 15:38:00,
2013-03-03 10:53:00,26.6,13.4,29.56,WSW,247,8.3,-999.0,57,-99.99,,,0.00,Acu-Link.com,2013-03-03 15:53:00,
2013-03-03 11:08:00,27.0,13.4,29.57,WNW,292,5.8,-999.0,56,-99.99,,,0.00,Acu-Link.com,2013-03-03 16:08:00,
2013-03-03 11:24:00,28.8,13.9,29.57,SSE,157,2.7,-999.0,53,-99.99,,,0.00,Acu-Link.com,2013-03-03 16:24:00,
2013-03-03 11:39:00,28.2,12.9,29.57,West,270,6.8,-999.0,52,-99.99,,,0.00,Acu-Link.com,2013-03-03 16:39:00,
2013-03-03 11:54:00,28.4,13.0,29.56,North,0,8.3,-999.0,52,-99.99,,,0.00,Acu-Link.com,2013-03-03 16:54:00,
2013-03-03 12:10:00,28.6,13.7,29.56,WNW,292,8.9,-999.0,53,-99.99,,,0.00,Acu-Link.com,2013-03-03 17:10:00,
2013-03-03 12:25:00,31.3,14.8,29.55,ENE,67,3.2,-999.0,50,-99.99,,,0.00,Acu-Link.com,2013-03-03 17:25:00,
2013-03-03 12:40:00,31.5,15.0,29.56,NNW,337,3.2,-999.0,50,-99.99,,,0.00,Acu-Link.com,2013-03-03 17:40:00,
2013-03-03 12:55:00,30.9,15.4,29.55,ENE,67,8.3,-999.0,52,-99.99,,,0.00,Acu-Link.com,2013-03-03 17:55:00,
2013-03-03 13:10:00,30.9,15.4,29.55,WNW,292,5.8,-999.0,52,-99.99,,,0.00,Acu-Link.com,2013-03-03 18:10:00,
2013-03-03 13:25:00,30.9,14.9,29.54,NNE,22,4.2,-999.0,51,-99.99,,,0.00,Acu-Link.com,2013-03-03 18:25:00,
2013-03-03 13:41:00,32.2,15.7,29.55,SSW,202,6.3,-999.0,50,-99.99,,,0.00,Acu-Link.com,2013-03-03 18:41:00,
2013-03-03 13:56:00,31.5,15.5,29.54,WNW,292,3.2,-999.0,51,-99.99,,,0.00,Acu-Link.com,2013-03-03 18:56:00,
2013-03-03 14:11:00,32.0,15.9,29.54,WNW,292,6.8,-999.0,51,-99.99,,,0.00,Acu-Link.com,2013-03-03 19:11:00,
2013-03-03 14:26:00,33.3,16.2,29.53,NW,315,3.7,-999.0,49,-99.99,,,0.00,Acu-Link.com,2013-03-03 19:26:00,
2013-03-03 14:41:00,32.2,15.7,29.52,NW,315,7.3,-999.0,50,-99.99,,,0.00,Acu-Link.com,2013-03-03 19:41:00,
2013-03-03 14:57:00,32.4,16.3,29.52,WNW,292,9.9,-999.0,51,-99.99,,,0.00,Acu-Link.com,2013-03-03 19:57:00,
2013-03-03 15:12:00,32.5,16.0,29.53,SW,225,3.2,-999.0,50,-99.99,,,0.00,Acu-Link.com,2013-03-03 20:12:00,
2013-03-03 15:27:00,32.5,16.0,29.53,NW,315,4.7,-999.0,50,-99.99,,,0.00,Acu-Link.com,2013-03-03 20:27:00,
2013-03-03 15:42:00,33.1,16.0,29.53,NNE,22,5.3,-999.0,49,-99.99,,,0.00,Acu-Link.com,2013-03-03 20:42:00,
2013-03-03 15:57:00,33.1,16.0,29.53,WNW,292,3.7,-999.0,49,-99.99,,,0.00,Acu-Link.com,2013-03-03 20:57:00,
2013-03-03 16:12:00,32.9,15.9,29.54,ESE,112,3.2,-999.0,49,-99.99,,,0.00,Acu-Link.com,2013-03-03 21:12:00,
2013-03-03 16:27:00,32.0,15.0,29.54,WSW,247,5.3,-999.0,49,-99.99,,,0.00,Acu-Link.com,2013-03-03 21:27:00,
2013-03-03 16:43:00,31.5,15.0,29.54,North,0,4.7,-999.0,50,-99.99,,,0.00,Acu-Link.com,2013-03-03 21:43:00,
2013-03-03 16:58:00,31.3,15.3,29.55,West,270,3.2,-999.0,51,-99.99,,,0.00,Acu-Link.com,2013-03-03 21:58:00,
2013-03-03 17:13:00,30.6,15.1,29.54,West,270,6.3,-999.0,52,-99.99,,,0.00,Acu-Link.com,2013-03-03 22:13:00,
2013-03-03 17:28:00,30.7,15.2,29.55,West,270,5.8,-999.0,52,-99.99,,,0.00,Acu-Link.com,2013-03-03 22:28:00,
2013-03-03 17:44:00,30.4,15.3,29.56,WSW,247,3.7,-999.0,53,-99.99,,,0.00,Acu-Link.com,2013-03-03 22:44:00,
2013-03-03 17:59:00,29.5,15.3,29.56,WNW,292,3.7,-999.0,55,-99.99,,,0.00,Acu-Link.com,2013-03-03 22:59:00,
2013-03-03 18:14:00,28.8,15.5,29.56,SSW,202,3.7,-999.0,57,-99.99,,,0.00,Acu-Link.com,2013-03-03 23:14:00,
2013-03-03 18:29:00,28.2,14.9,29.56,South,180,2.7,-999.0,57,-99.99,,,0.00,Acu-Link.com,2013-03-03 23:29:00,
2013-03-03 18:45:00,27.7,14.5,29.56,WNW,292,4.2,-999.0,57,-99.99,,,0.00,Acu-Link.com,2013-03-03 23:45:00,
2013-03-03 19:00:00,27.3,14.9,29.57,SSE,157,2.2,-999.0,59,-99.99,,,0.00,Acu-Link.com,2013-03-04 00:00:00,
2013-03-03 19:15:00,27.0,15.4,29.58,ESE,112,2.7,-999.0,61,-99.99,,,0.00,Acu-Link.com,2013-03-04 00:15:00,
2013-03-03 19:30:00,26.8,15.6,29.58,SSW,202,3.2,-999.0,62,-99.99,,,0.00,Acu-Link.com,2013-03-04 00:30:00,
2013-03-03 19:46:00,26.4,15.9,29.59,NNE,22,3.7,-999.0,64,-99.99,,,0.00,Acu-Link.com,2013-03-04 00:46:00,
2013-03-03 20:01:00,26.1,16.0,29.58,SSE,157,4.2,-999.0,65,-99.99,,,0.00,Acu-Link.com,2013-03-04 01:01:00,
2013-03-03 20:16:00,26.1,16.3,29.59,SSW,202,6.8,-999.0,66,-99.99,,,0.00,Acu-Link.com,2013-03-04 01:16:00,
2013-03-03 20:31:00,26.1,16.3,29.60,WSW,247,3.7,-999.0,66,-99.99,,,0.00,Acu-Link.com,2013-03-04 01:31:00,
2013-03-03 20:46:00,25.9,16.1,29.59,ENE,67,4.2,-999.0,66,-99.99,,,0.00,Acu-Link.com,2013-03-04 01:46:00,
2013-03-03 21:02:00,25.9,16.1,29.60,North,0,2.2,-999.0,66,-99.99,,,0.00,Acu-Link.com,2013-03-04 02:02:00,
2013-03-03 21:17:00,25.7,15.6,29.60,East,90,5.8,-999.0,65,-99.99,,,0.00,Acu-Link.com,2013-03-04 02:17:00,
2013-03-03 21:32:00,25.3,15.2,29.59,NE,45,10.9,-999.0,65,-99.99,,,0.00,Acu-Link.com,2013-03-04 02:32:00,
2013-03-03 21:47:00,25.3,15.2,29.59,South,180,3.7,-999.0,65,-99.99,,,0.00,Acu-Link.com,2013-03-04 02:47:00,
2013-03-03 22:03:00,25.3,15.2,29.59,NNW,337,2.2,-999.0,65,-99.99,,,0.00,Acu-Link.com,2013-03-04 03:03:00,
2013-03-03 22:18:00,25.0,14.9,29.59,ENE,67,1.7,-999.0,65,-99.99,,,0.00,Acu-Link.com,2013-03-04 03:18:00,
2013-03-03 22:33:00,25.0,14.9,29.59,WSW,247,2.7,-999.0,65,-99.99,,,0.00,Acu-Link.com,2013-03-04 03:33:00,
2013-03-03 22:48:00,25.0,14.6,29.59,North,0,2.7,-999.0,64,-99.99,,,0.00,Acu-Link.com,2013-03-04 03:48:00,
2013-03-03 23:03:00,24.6,14.2,29.59,SE,135,2.7,-999.0,64,-99.99,,,0.00,Acu-Link.com,2013-03-04 04:03:00,
2013-03-03 23:19:00,24.6,14.2,29.59,North,0,2.2,-999.0,64,-99.99,,,0.00,Acu-Link.com,2013-03-04 04:19:00,
2013-03-03 23:34:00,24.4,14.4,29.59,SW,225,3.2,-999.0,65,-99.99,,,0.00,Acu-Link.com,2013-03-04 04:34:00,
2013-03-03 23:49:00,24.4,14.4,29.59,SW,225,4.2,-999.0,65,-99.99,,,0.00,Acu-Link.com,2013-03-04 04:49:00,